Time;durP1;ratioP1;P1;durP2;ratioP2;P2;SDS_P1;SDS_P2;PMS_P1;PMS_P2;Temp;Humidity;BMP_temperature;BMP_pressure;BME280_temperature;BME280_humidity;BME280_pressure;Samples;Min_cycle;Max_cycle;Signal;HPM_P1;HPM_P2
2021/08/11 00:02:21;;;;;;;;;;;28.30;97.30;;;;;;1814253;77;20247;-90
2021/08/11 00:04:54;;;;;;;;;;;28.30;97.20;;;;;;1854274;76;20294;-90
2021/08/11 00:07:25;;;;;;;;;;;28.30;97.30;;;;;;1831160;75;20215;-89
2021/08/11 00:10:00;;;;;;;;;;;28.30;97.10;;;;;;1857018;73;20186;-91
2021/08/11 00:12:34;;;;;;;;;;;28.40;97.10;;;;;;1862775;73;20097;-90
2021/08/11 00:15:00;;;;;;;;;;;28.40;96.80;;;;;;1863610;72;20270;-90
2021/08/11 00:17:42;;;;;;;;;;;28.40;97.20;;;;;;1865639;73;20099;-90
2021/08/11 00:20:13;;;;;;;;;;;28.40;96.60;;;;;;1853458;73;20172;-89
2021/08/11 00:22:55;;;;;;;;;;;28.40;96.60;;;;;;1825883;75;20292;-90
2021/08/11 00:25:44;;;;;;;;;;;28.50;96.60;;;;;;1795885;77;20767;-88
2021/08/11 00:28:16;;;;;;;;;;;28.50;96.40;;;;;;1860477;73;20134;-91
2021/08/11 00:30:53;;;;;;;;;;;28.50;96.30;;;;;;1854654;74;20153;-89
2021/08/11 00:33:17;;;;;;;;;;;28.50;96.30;;;;;;1846830;76;20167;-90
2021/08/11 00:35:50;;;;;;;;;;;28.60;96.50;;;;;;1846232;76;20164;-91
2021/08/11 00:38:23;;;;;;;;;;;28.60;96.80;;;;;;1856046;75;20368;-89
2021/08/11 00:40:57;;;;;;;;;;;28.60;96.20;;;;;;1848556;76;20193;-90
2021/08/11 00:43:23;;;;;;;;;;;28.60;96.20;;;;;;1819494;77;20287;-90
2021/08/11 00:45:53;;;;;;;;;;;28.60;96.10;;;;;;1788836;79;20196;-91
2021/08/11 00:48:26;;;;;;;;;;;28.60;96.00;;;;;;1818099;77;20192;-91
2021/08/11 00:51:09;;;;;;;;;;;;;;;;;;;;;
2021/08/11 00:53:36;;;;;;;;;;;28.70;95.80;;;;;;1852751;76;20207;-91
2021/08/11 00:56:10;;;;;;;;;;;28.60;95.80;;;;;;1856216;76;20260;-90
2021/08/11 00:58:40;;;;;;;;;;;28.70;95.90;;;;;;1852082;76;20250;-90
2021/08/11 01:01:26;;;;;;;;;;;28.70;96.00;;;;;;1821606;77;20196;-91
2021/08/11 01:03:47;;;;;;;;;;;28.70;96.10;;;;;;1851539;76;20221;-91
2021/08/11 01:06:22;;;;;;;;;;;28.70;96.00;;;;;;1851563;75;20181;-92
2021/08/11 01:08:54;;;;;;;;;;;28.70;96.10;;;;;;1861623;74;20184;-92
2021/08/11 01:11:29;;;;;;;;;;;28.70;96.00;;;;;;1892122;75;20224;-91
2021/08/11 01:14:01;;;;;;;;;;;28.70;95.90;;;;;;1892740;74;20191;-90
2021/08/11 01:16:33;;;;;;;;;;;28.70;95.90;;;;;;1845226;77;20246;-89
2021/08/11 01:19:04;;;;;;;;;;;28.80;95.90;;;;;;1822052;76;20261;-92
2021/08/11 01:21:35;;;;;;;;;;;28.80;95.90;;;;;;1847696;76;20207;-91
2021/08/11 01:24:08;;;;;;;;;;;28.80;95.80;;;;;;1816408;77;20758;-90
2021/08/11 01:26:46;;;;;;;;;;;28.80;95.90;;;;;;1849090;76;20617;-91
2021/08/11 01:29:39;;;;;;;;;;;28.80;95.90;;;;;;1884818;75;20427;-90
2021/08/11 01:32:08;;;;;;;;;;;28.80;95.90;;;;;;1850416;76;20181;-89
2021/08/11 01:34:42;;;;;;;;;;;28.90;96.00;;;;;;1855043;76;20127;-90
2021/08/11 01:37:14;;;;;;;;;;;28.90;95.80;;;;;;1858343;76;20511;-89
2021/08/11 01:39:47;;;;;;;;;;;28.90;95.60;;;;;;1849443;76;20252;-88
2021/08/11 01:42:22;;;;;;;;;;;28.90;95.60;;;;;;1847390;76;20608;-90
2021/08/11 01:44:52;;;;;;;;;;;28.90;95.70;;;;;;1849661;76;20212;-90
2021/08/11 01:47:23;;;;;;;;;;;29.00;95.70;;;;;;1855449;76;20369;-90
2021/08/11 01:49:53;;;;;;;;;;;29.00;95.80;;;;;;1821318;77;20223;-92
2021/08/11 01:52:24;;;;;;;;;;;29.10;95.20;;;;;;1853411;76;20482;-90
2021/08/11 01:54:57;;;;;;;;;;;29.10;95.20;;;;;;1858830;76;20174;-91
2021/08/11 01:57:38;;;;;;;;;;;29.10;95.30;;;;;;1844245;76;20215;-80
2021/08/11 02:00:08;;;;;;;;;;;29.20;95.30;;;;;;1851036;76;20503;-78
2021/08/11 02:02:39;;;;;;;;;;;29.20;95.20;;;;;;1859242;76;20314;-78
2021/08/11 02:05:13;;;;;;;;;;;29.20;95.10;;;;;;1852787;75;20542;-79
2021/08/11 02:08:02;;;;;;;;;;;29.30;94.80;;;;;;1855278;76;20464;-78
2021/08/11 02:10:43;;;;;;;;;;;29.30;94.70;;;;;;1847091;76;20560;-78
2021/08/11 02:13:11;;;;;;;;;;;29.30;94.80;;;;;;1848305;75;20897;-78
2021/08/11 02:15:41;;;;;;;;;;;29.40;94.70;;;;;;1822272;76;20239;-79
2021/08/11 02:18:33;;;;;;;;;;;29.30;94.40;;;;;;1852265;75;20600;-79
2021/08/11 02:20:55;;;;;;;;;;;29.30;94.30;;;;;;1858753;76;20547;-79
2021/08/11 02:23:27;;;;;;;;;;;29.30;94.40;;;;;;1859267;76;20402;-79
2021/08/11 02:26:01;;;;;;;;;;;29.40;94.50;;;;;;1890746;74;20278;-80
2021/08/11 02:29:18;;;;;;;;;;;29.40;94.20;;;;;;1888281;74;20486;-80
2021/08/11 02:31:31;;;;;;;;;;;29.40;94.10;;;;;;1870621;74;20212;-78
2021/08/11 02:34:02;;;;;;;;;;;29.40;94.10;;;;;;1888877;74;20161;-79
2021/08/11 02:36:32;;;;;;;;;;;29.40;94.20;;;;;;1901866;74;20401;-80
2021/08/11 02:39:03;;;;;;;;;;;29.40;94.20;;;;;;1883453;75;20172;-79
2021/08/11 02:41:53;;;;;;;;;;;29.40;94.10;;;;;;1887935;75;20121;-77
2021/08/11 02:44:31;;;;;;;;;;;29.40;94.20;;;;;;1881161;75;20261;-78
2021/08/11 02:46:57;;;;;;;;;;;29.40;94.20;;;;;;1890335;74;20452;-78
2021/08/11 02:49:30;;;;;;;;;;;29.50;94.10;;;;;;1887288;74;20578;-78
2021/08/11 02:52:00;;;;;;;;;;;29.50;94.10;;;;;;1892072;74;20216;-79
2021/08/11 02:54:30;;;;;;;;;;;29.50;94.00;;;;;;1885932;74;20175;-78
2021/08/11 02:57:01;;;;;;;;;;;29.60;93.80;;;;;;1886423;75;20207;-79
2021/08/11 02:59:31;;;;;;;;;;;29.60;93.90;;;;;;1880832;74;20395;-79
2021/08/11 03:02:00;;;;;;;;;;;29.70;93.70;;;;;;1889514;75;20222;-78
2021/08/11 03:04:31;;;;;;;;;;;29.70;93.80;;;;;;1890168;74;20209;-78
2021/08/11 03:07:00;;;;;;;;;;;29.60;94.20;;;;;;1883769;74;20424;-78
2021/08/11 03:09:30;;;;;;;;;;;29.70;94.00;;;;;;1890989;74;20165;-79
2021/08/11 03:12:01;;;;;;;;;;;29.70;93.50;;;;;;1889468;74;20228;-79
2021/08/11 03:14:31;;;;;;;;;;;29.70;93.40;;;;;;1886476;74;20132;-79
2021/08/11 03:17:01;;;;;;;;;;;29.70;93.50;;;;;;1857823;76;20581;-80
2021/08/11 03:19:30;;;;;;;;;;;29.70;93.50;;;;;;1864084;75;20217;-78
2021/08/11 03:22:03;;;;;;;;;;;29.70;93.60;;;;;;1812033;77;20218;-81
2021/08/11 03:24:33;;;;;;;;;;;29.60;93.80;;;;;;1849758;76;20230;-84
2021/08/11 03:27:03;;;;;;;;;;;29.70;93.80;;;;;;1846431;76;20214;-79
2021/08/11 03:29:35;;;;;;;;;;;29.70;93.90;;;;;;1832403;77;20486;-79
2021/08/11 03:32:04;;;;;;;;;;;29.70;93.80;;;;;;1891512;74;20171;-80
2021/08/11 03:34:34;;;;;;;;;;;29.70;93.80;;;;;;1908300;74;20179;-79
2021/08/11 03:37:06;;;;;;;;;;;29.70;93.90;;;;;;1903017;74;20187;-78
2021/08/11 03:39:39;;;;;;;;;;;29.70;94.00;;;;;;1910934;74;20149;-78
2021/08/11 03:42:09;;;;;;;;;;;29.70;93.70;;;;;;1913201;74;20206;-78
2021/08/11 03:44:38;;;;;;;;;;;29.80;93.70;;;;;;1919110;74;20203;-78
2021/08/11 03:47:08;;;;;;;;;;;29.80;93.60;;;;;;1892363;74;20466;-79
2021/08/11 03:49:38;;;;;;;;;;;29.90;93.50;;;;;;1914915;74;20241;-82
2021/08/11 03:52:09;;;;;;;;;;;29.80;93.40;;;;;;1897239;74;20143;-79
2021/08/11 03:54:42;;;;;;;;;;;29.80;93.50;;;;;;1900199;74;20202;-79
2021/08/11 03:57:12;;;;;;;;;;;29.90;93.50;;;;;;1917967;74;20251;-79
2021/08/11 03:59:41;;;;;;;;;;;29.90;93.50;;;;;;1908373;74;20502;-81
2021/08/11 04:02:11;;;;;;;;;;;29.90;93.40;;;;;;1917183;74;20219;-78
2021/08/11 04:04:41;;;;;;;;;;;29.90;93.60;;;;;;1910556;74;20274;-80
2021/08/11 04:07:11;;;;;;;;;;;29.90;93.40;;;;;;1871086;75;20158;-84
2021/08/11 04:09:41;;;;;;;;;;;30.00;93.50;;;;;;1825596;77;20563;-79
2021/08/11 04:12:11;;;;;;;;;;;30.00;93.50;;;;;;1854507;76;20188;-80
2021/08/11 04:14:40;;;;;;;;;;;30.10;93.40;;;;;;1845274;76;20162;-79
2021/08/11 04:17:12;;;;;;;;;;;30.10;93.20;;;;;;1843424;77;20174;-79
2021/08/11 04:19:47;;;;;;;;;;;30.10;93.10;;;;;;1859863;76;20245;-79
2021/08/11 04:22:13;;;;;;;;;;;30.20;93.00;;;;;;1849462;76;20200;-79
2021/08/11 04:24:44;;;;;;;;;;;30.20;92.90;;;;;;1853030;76;20182;-79
2021/08/11 04:27:25;;;;;;;;;;;30.20;92.90;;;;;;1857350;76;20215;-77
2021/08/11 04:29:58;;;;;;;;;;;30.20;92.90;;;;;;1841621;77;20152;-78
2021/08/11 04:32:33;;;;;;;;;;;30.30;93.10;;;;;;1817263;78;20268;-78
2021/08/11 04:35:01;;;;;;;;;;;30.30;92.90;;;;;;1800742;79;20211;-78
2021/08/11 04:37:30;;;;;;;;;;;30.40;92.20;;;;;;1841665;77;20215;-78
2021/08/11 04:40:00;;;;;;;;;;;30.40;92.30;;;;;;1843401;77;20832;-78
2021/08/11 04:42:30;;;;;;;;;;;30.40;92.50;;;;;;1855838;76;20243;-78
2021/08/11 04:45:01;;;;;;;;;;;30.50;92.10;;;;;;1850170;76;20210;-77
2021/08/11 04:47:33;;;;;;;;;;;30.50;92.00;;;;;;1849230;76;20138;-78
2021/08/11 04:50:06;;;;;;;;;;;30.50;92.20;;;;;;1829349;77;20210;-79
2021/08/11 04:52:40;;;;;;;;;;;30.60;92.20;;;;;;1806388;77;20261;-78
2021/08/11 04:55:12;;;;;;;;;;;30.60;92.00;;;;;;1837014;77;20168;-79
2021/08/11 04:57:41;;;;;;;;;;;30.60;91.70;;;;;;1822657;77;20550;-79
2021/08/11 05:00:11;;;;;;;;;;;30.60;91.70;;;;;;1827779;77;20247;-80
2021/08/11 05:03:15;;;;;;;;;;;30.60;91.50;;;;;;1792471;78;20519;-79
2021/08/11 05:05:43;;;;;;;;;;;30.60;91.70;;;;;;1748428;80;20151;-79
2021/08/11 05:08:13;;;;;;;;;;;30.60;91.90;;;;;;1810362;79;20283;-79
2021/08/11 05:10:42;;;;;;;;;;;30.60;92.10;;;;;;1854049;75;20260;-79
2021/08/11 05:13:14;;;;;;;;;;;30.60;91.80;;;;;;1866620;75;20497;-79
2021/08/11 05:15:44;;;;;;;;;;;30.60;91.50;;;;;;1892553;75;20229;-79
2021/08/11 05:18:15;;;;;;;;;;;30.60;91.50;;;;;;1887945;75;20207;-79
2021/08/11 05:20:45;;;;;;;;;;;30.60;91.30;;;;;;1889137;75;20190;-80
2021/08/11 05:23:15;;;;;;;;;;;30.70;91.50;;;;;;1890315;75;20204;-79
2021/08/11 05:25:45;;;;;;;;;;;30.60;91.50;;;;;;1883592;75;20133;-79
2021/08/11 05:28:16;;;;;;;;;;;30.60;91.90;;;;;;1882410;75;20231;-78
2021/08/11 05:30:45;;;;;;;;;;;30.60;91.40;;;;;;1879966;75;20265;-79
2021/08/11 05:33:15;;;;;;;;;;;30.60;91.60;;;;;;1885648;75;20191;-78
2021/08/11 05:35:48;;;;;;;;;;;30.60;91.60;;;;;;1883934;74;20266;-79
2021/08/11 05:38:18;;;;;;;;;;;30.60;91.40;;;;;;1879505;75;20219;-80
2021/08/11 05:40:47;;;;;;;;;;;30.70;91.50;;;;;;1883501;75;20159;-79
2021/08/11 05:43:17;;;;;;;;;;;30.70;91.60;;;;;;1880516;75;20187;-80
2021/08/11 05:45:47;;;;;;;;;;;30.70;91.50;;;;;;1886201;75;20233;-80
2021/08/11 05:48:17;;;;;;;;;;;30.80;91.40;;;;;;1885937;75;20216;-80
2021/08/11 05:50:46;;;;;;;;;;;30.80;91.30;;;;;;1887784;75;20230;-80
2021/08/11 05:53:17;;;;;;;;;;;30.90;91.10;;;;;;1891954;75;20262;-81
2021/08/11 05:55:46;;;;;;;;;;;30.90;90.80;;;;;;1883278;75;20116;-79
2021/08/11 05:58:16;;;;;;;;;;;30.90;90.50;;;;;;1896509;75;20174;-80
2021/08/11 06:00:46;;;;;;;;;;;30.90;90.50;;;;;;1848530;77;20766;-79
2021/08/11 06:03:16;;;;;;;;;;;30.90;90.50;;;;;;1885030;75;20151;-80
2021/08/11 06:05:46;;;;;;;;;;;31.00;90.30;;;;;;1888046;75;20180;-80
2021/08/11 06:08:31;;;;;;;;;;;31.10;90.40;;;;;;1885217;75;20178;-82
2021/08/11 06:14:04;;;;;;;;;;;31.20;89.70;;;;;;1827598;75;20432;-79
2021/08/11 06:16:37;;;;;;;;;;;31.20;90.00;;;;;;1887283;75;20180;-80
2021/08/11 06:19:09;;;;;;;;;;;31.30;89.90;;;;;;1887491;75;20188;-78
2021/08/11 06:21:39;;;;;;;;;;;31.30;88.80;;;;;;1889388;75;20231;-77
2021/08/11 06:24:12;;;;;;;;;;;31.40;88.10;;;;;;1892565;75;20154;-79
2021/08/11 06:26:44;;;;;;;;;;;31.40;88.80;;;;;;1895097;75;20214;-79
2021/08/11 06:29:18;;;;;;;;;;;31.40;87.70;;;;;;1890352;75;20154;-79
2021/08/11 06:31:51;;;;;;;;;;;31.50;87.30;;;;;;1887961;75;20166;-78
2021/08/11 06:34:23;;;;;;;;;;;31.60;87.90;;;;;;1887311;75;20566;-80
2021/08/11 06:36:53;;;;;;;;;;;31.60;87.40;;;;;;1894274;75;20508;-79
2021/08/11 06:39:25;;;;;;;;;;;31.60;86.30;;;;;;1890390;75;20171;-80
2021/08/11 06:41:54;;;;;;;;;;;31.70;86.90;;;;;;1891865;75;20162;-79
2021/08/11 06:44:29;;;;;;;;;;;31.80;85.80;;;;;;1890315;75;20467;-80
2021/08/11 06:47:15;;;;;;;;;;;31.80;86.50;;;;;;1764639;76;20210;-78
2021/08/11 06:49:45;;;;;;;;;;;31.90;85.80;;;;;;1843264;76;20209;-79
2021/08/11 06:52:17;;;;;;;;;;;31.90;86.20;;;;;;1849483;76;20163;-79
2021/08/11 06:54:47;;;;;;;;;;;32.00;87.10;;;;;;1811942;78;20215;-80
2021/08/11 06:57:18;;;;;;;;;;;32.00;85.70;;;;;;1835309;77;20268;-79
2021/08/11 06:59:48;;;;;;;;;;;32.10;85.30;;;;;;1879949;75;20214;-78
2021/08/11 07:02:18;;;;;;;;;;;32.10;84.90;;;;;;1881297;75;20253;-80
2021/08/11 07:04:49;;;;;;;;;;;32.20;85.10;;;;;;1879252;76;20211;-80
2021/08/11 07:07:19;;;;;;;;;;;32.10;85.00;;;;;;1849539;76;20534;-78
2021/08/11 07:09:48;;;;;;;;;;;32.20;84.60;;;;;;1847903;76;20166;-79
2021/08/11 07:12:18;;;;;;;;;;;32.20;85.00;;;;;;1847676;76;20492;-79
2021/08/11 07:14:48;;;;;;;;;;;32.20;85.90;;;;;;1849954;76;20166;-77
2021/08/11 07:17:18;;;;;;;;;;;32.20;84.70;;;;;;1859587;76;20230;-77
2021/08/11 07:19:48;;;;;;;;;;;32.30;85.10;;;;;;1794360;78;20518;-79
2021/08/11 07:22:21;;;;;;;;;;;32.20;84.50;;;;;;1851737;76;20457;-77
2021/08/11 07:24:49;;;;;;;;;;;32.30;84.10;;;;;;1861431;75;20194;-80
2021/08/11 07:27:19;;;;;;;;;;;32.20;84.20;;;;;;1855201;76;20217;-79
2021/08/11 07:29:49;;;;;;;;;;;32.30;84.90;;;;;;1854741;76;20533;-80
2021/08/11 07:32:20;;;;;;;;;;;32.30;84.70;;;;;;1827579;76;20207;-79
2021/08/11 07:34:50;;;;;;;;;;;32.20;85.50;;;;;;1853142;76;20221;-79
2021/08/11 07:37:21;;;;;;;;;;;32.20;84.60;;;;;;1848451;76;20226;-80
2021/08/11 07:39:53;;;;;;;;;;;32.20;86.20;;;;;;1848721;76;20196;-81
2021/08/11 07:42:22;;;;;;;;;;;32.20;84.40;;;;;;1860844;76;20183;-80
2021/08/11 07:44:51;;;;;;;;;;;32.10;84.20;;;;;;1857974;76;20229;-81
2021/08/11 07:47:21;;;;;;;;;;;32.10;84.90;;;;;;1865618;76;20216;-77
2021/08/11 07:49:50;;;;;;;;;;;32.00;85.90;;;;;;1862367;76;20277;-80
2021/08/11 07:52:20;;;;;;;;;;;32.00;87.00;;;;;;1854058;76;20186;-79
2021/08/11 07:54:50;;;;;;;;;;;31.90;89.10;;;;;;1862629;75;20205;-81
2021/08/11 07:57:22;;;;;;;;;;;31.90;90.70;;;;;;1849948;76;20197;-81
2021/08/11 07:59:53;;;;;;;;;;;31.70;90.80;;;;;;1844594;77;20170;-83
2021/08/11 08:02:24;;;;;;;;;;;31.30;91.30;;;;;;1843240;78;20233;-81
2021/08/11 08:04:56;;;;;;;;;;;30.80;91.90;;;;;;1851013;76;20192;-81
2021/08/11 08:07:25;;;;;;;;;;;30.40;92.60;;;;;;1849830;76;20212;-82
2021/08/11 08:09:55;;;;;;;;;;;30.20;93.30;;;;;;1842088;77;20270;-80
2021/08/11 08:12:25;;;;;;;;;;;29.90;94.00;;;;;;1852633;76;20172;-80
2021/08/11 08:14:55;;;;;;;;;;;29.70;94.30;;;;;;1823924;77;20123;-81
2021/08/11 08:17:25;;;;;;;;;;;29.60;95.10;;;;;;1846889;77;20158;-81
2021/08/11 08:19:56;;;;;;;;;;;29.40;95.70;;;;;;1852796;76;20240;-80
2021/08/11 08:22:40;;;;;;;;;;;29.40;96.30;;;;;;1875876;75;20221;-81
2021/08/11 08:25:06;;;;;;;;;;;29.20;96.50;;;;;;1870746;74;20125;-80
2021/08/11 08:27:38;;;;;;;;;;;29.10;96.20;;;;;;1876234;75;20119;-80
2021/08/11 08:30:09;;;;;;;;;;;29.00;96.40;;;;;;1886528;74;20464;-80
2021/08/11 08:32:42;;;;;;;;;;;28.90;96.80;;;;;;1891778;75;20140;-80
2021/08/11 08:35:13;;;;;;;;;;;28.80;96.70;;;;;;1880040;75;20152;-80
2021/08/11 08:37:43;;;;;;;;;;;28.80;97.00;;;;;;1885101;75;20205;-81
2021/08/11 08:40:16;;;;;;;;;;;28.80;96.90;;;;;;1880411;75;20143;-80
2021/08/11 08:42:46;;;;;;;;;;;28.80;97.20;;;;;;1886083;74;20161;-81
2021/08/11 08:45:16;;;;;;;;;;;28.90;97.20;;;;;;1877083;75;20516;-82
2021/08/11 08:47:48;;;;;;;;;;;28.90;97.30;;;;;;1885449;75;20171;-80
2021/08/11 08:50:19;;;;;;;;;;;28.90;97.20;;;;;;1890836;74;20176;-80
2021/08/11 08:52:50;;;;;;;;;;;28.90;97.70;;;;;;1893428;74;20276;-80
2021/08/11 08:55:22;;;;;;;;;;;29.10;98.00;;;;;;1884800;74;20553;-79
2021/08/11 08:57:57;;;;;;;;;;;29.20;98.20;;;;;;1890039;75;20181;-80
2021/08/11 09:00:27;;;;;;;;;;;29.30;98.00;;;;;;1862586;76;20449;-80
2021/08/11 09:02:56;;;;;;;;;;;29.30;97.70;;;;;;1818050;77;20447;-82
2021/08/11 09:05:28;;;;;;;;;;;29.50;97.80;;;;;;1876370;75;20159;-80
2021/08/11 09:07:58;;;;;;;;;;;29.60;97.60;;;;;;1883638;75;20457;-80
2021/08/11 09:10:32;;;;;;;;;;;29.70;97.30;;;;;;1892050;74;20170;-79
2021/08/11 09:13:09;;;;;;;;;;;29.80;97.30;;;;;;1888655;74;20184;-80
2021/08/11 09:15:35;;;;;;;;;;;29.80;96.80;;;;;;1896219;75;20193;-79
2021/08/11 09:18:07;;;;;;;;;;;29.90;96.30;;;;;;1891028;74;20150;-81
2021/08/11 09:20:36;;;;;;;;;;;30.00;96.00;;;;;;1894693;74;20576;-80
2021/08/11 09:23:07;;;;;;;;;;;30.10;96.10;;;;;;1883052;75;20462;-80
2021/08/11 09:25:38;;;;;;;;;;;30.20;96.40;;;;;;1882224;75;20560;-81
2021/08/11 09:28:09;;;;;;;;;;;30.20;96.40;;;;;;1890402;73;20144;-82
2021/08/11 09:30:40;;;;;;;;;;;30.20;96.80;;;;;;1869543;74;20205;-81
2021/08/11 09:33:10;;;;;;;;;;;30.20;96.70;;;;;;1889629;76;20211;-81
2021/08/11 09:35:40;;;;;;;;;;;30.20;96.70;;;;;;1881803;74;20497;-81
2021/08/11 09:38:11;;;;;;;;;;;30.20;96.60;;;;;;1880689;76;20203;-80
2021/08/11 09:40:42;;;;;;;;;;;30.20;96.70;;;;;;1912726;74;20130;-81
2021/08/11 09:43:15;;;;;;;;;;;30.20;96.60;;;;;;1910179;74;20217;-81
2021/08/11 09:45:46;;;;;;;;;;;30.20;97.40;;;;;;1909655;74;20127;-81
2021/08/11 09:48:17;;;;;;;;;;;30.10;97.50;;;;;;1912500;74;20189;-81
2021/08/11 09:50:48;;;;;;;;;;;30.10;97.10;;;;;;1892455;74;20308;-82
2021/08/11 09:53:23;;;;;;;;;;;30.00;95.50;;;;;;1897266;74;20601;-82
2021/08/11 09:55:51;;;;;;;;;;;29.90;95.30;;;;;;1884969;74;20168;-81
2021/08/11 09:58:22;;;;;;;;;;;29.90;93.50;;;;;;1899772;74;20190;-81
2021/08/11 10:00:53;;;;;;;;;;;29.80;92.60;;;;;;1886191;75;20148;-81
2021/08/11 10:03:23;;;;;;;;;;;29.80;93.60;;;;;;1895559;74;20385;-82
2021/08/11 10:05:53;;;;;;;;;;;29.80;93.30;;;;;;1858422;76;20131;-81
2021/08/11 10:08:24;;;;;;;;;;;29.70;93.00;;;;;;1852565;76;20232;-81
2021/08/11 10:10:54;;;;;;;;;;;29.60;93.10;;;;;;1875679;75;20275;-80
2021/08/11 10:13:28;;;;;;;;;;;29.50;93.10;;;;;;1829703;77;20135;-80
2021/08/11 10:16:00;;;;;;;;;;;29.50;93.50;;;;;;1826548;77;20262;-82
2021/08/11 10:18:31;;;;;;;;;;;29.40;93.70;;;;;;1849682;76;20242;-81
2021/08/11 10:21:06;;;;;;;;;;;29.40;93.90;;;;;;1860182;76;21259;-81
2021/08/11 10:26:48;;;;;;;;;;;29.40;94.10;;;;;;1813122;78;20141;-83
2021/08/11 10:29:19;;;;;;;;;;;29.40;94.20;;;;;;1813617;78;20158;-81
2021/08/11 10:31:49;;;;;;;;;;;29.40;94.40;;;;;;1788424;78;20296;-81
2021/08/11 10:34:19;;;;;;;;;;;29.40;95.10;;;;;;1792899;78;20346;-81
2021/08/11 10:36:49;;;;;;;;;;;29.30;95.20;;;;;;1753319;80;20326;-81
2021/08/11 10:39:22;;;;;;;;;;;29.20;94.30;;;;;;1752744;79;20265;-80
2021/08/11 10:42:10;;;;;;;;;;;29.20;93.80;;;;;;1789266;79;20236;-81
2021/08/11 10:44:41;;;;;;;;;;;29.10;93.40;;;;;;1783217;79;20147;-80
2021/08/11 10:47:11;;;;;;;;;;;29.10;94.00;;;;;;1801173;79;20241;-80
2021/08/11 10:49:43;;;;;;;;;;;29.00;94.50;;;;;;1753033;80;20196;-81
2021/08/11 10:52:17;;;;;;;;;;;28.90;95.10;;;;;;1796807;78;20495;-79
2021/08/11 10:54:48;;;;;;;;;;;28.90;95.20;;;;;;1794373;78;20620;-80
2021/08/11 10:57:28;;;;;;;;;;;28.80;95.50;;;;;;1794461;79;20271;-80
2021/08/11 10:59:56;;;;;;;;;;;28.70;95.30;;;;;;1791254;78;20321;-82
2021/08/11 11:02:27;;;;;;;;;;;28.70;95.10;;;;;;1814265;76;20319;-82
2021/08/11 11:05:06;;;;;;;;;;;28.70;95.20;;;;;;1858142;76;20305;-80
2021/08/11 11:07:51;;;;;;;;;;;;;;;;;;;;;
2021/08/11 11:10:24;;;;;;;;;;;28.70;95.10;;;;;;1854193;76;20203;-81
2021/08/11 11:12:53;;;;;;;;;;;28.70;95.00;;;;;;1855101;76;20196;-79
2021/08/11 11:15:27;;;;;;;;;;;28.70;94.70;;;;;;1826445;76;20196;-80
2021/08/11 11:18:02;;;;;;;;;;;28.70;94.20;;;;;;1891191;74;20174;-81
2021/08/11 11:20:38;;;;;;;;;;;28.70;94.20;;;;;;1875564;75;21166;-81
2021/08/11 11:23:08;;;;;;;;;;;28.70;94.20;;;;;;1874190;75;20210;-81
2021/08/11 11:25:39;;;;;;;;;;;28.70;94.20;;;;;;1875713;75;20264;-81
2021/08/11 11:28:08;;;;;;;;;;;28.70;94.20;;;;;;1866948;75;20185;-81
2021/08/11 11:30:38;;;;;;;;;;;28.70;94.00;;;;;;1862561;75;20188;-81
2021/08/11 11:33:09;;;;;;;;;;;28.70;93.30;;;;;;1889317;75;20219;-80
2021/08/11 11:35:39;;;;;;;;;;;28.70;93.00;;;;;;1904334;75;20118;-80
2021/08/11 11:38:10;;;;;;;;;;;28.70;93.30;;;;;;1892459;74;20118;-82
2021/08/11 11:40:41;;;;;;;;;;;28.70;93.50;;;;;;1895764;75;20165;-81
2021/08/11 11:43:12;;;;;;;;;;;28.70;93.50;;;;;;1875090;75;20216;-81
2021/08/11 11:45:43;;;;;;;;;;;28.80;93.50;;;;;;1891672;75;20123;-81
2021/08/11 11:48:13;;;;;;;;;;;28.80;93.60;;;;;;1908887;75;20193;-80
2021/08/11 11:50:45;;;;;;;;;;;28.80;93.50;;;;;;1885708;75;20184;-81
2021/08/11 11:53:24;;;;;;;;;;;28.80;93.70;;;;;;1892134;75;20396;-82
2021/08/11 11:55:54;;;;;;;;;;;28.70;93.30;;;;;;1896598;74;20257;-81
2021/08/11 11:58:25;;;;;;;;;;;28.70;93.20;;;;;;1900107;75;20173;-81
2021/08/11 12:00:57;;;;;;;;;;;28.60;93.40;;;;;;1890611;74;20231;-81
2021/08/11 12:03:31;;;;;;;;;;;28.60;93.30;;;;;;1896687;75;20180;-81
2021/08/11 12:06:01;;;;;;;;;;;28.60;93.20;;;;;;1884831;74;20424;-80
2021/08/11 12:08:32;;;;;;;;;;;28.60;93.40;;;;;;1881351;74;20216;-81
2021/08/11 12:11:03;;;;;;;;;;;28.50;93.20;;;;;;1874216;75;20170;-83
2021/08/11 12:13:33;;;;;;;;;;;28.50;93.30;;;;;;1877519;75;20207;-81
2021/08/11 12:16:03;;;;;;;;;;;28.50;93.40;;;;;;1882419;75;20529;-80
2021/08/11 12:18:33;;;;;;;;;;;28.50;93.40;;;;;;1881758;75;20273;-80
2021/08/11 12:21:03;;;;;;;;;;;28.50;93.60;;;;;;1892889;74;20263;-82
2021/08/11 12:23:34;;;;;;;;;;;28.50;93.40;;;;;;1865051;75;20135;-81
2021/08/11 12:26:05;;;;;;;;;;;28.50;93.40;;;;;;1867870;75;20240;-82
2021/08/11 12:28:37;;;;;;;;;;;28.50;93.20;;;;;;1888836;75;20245;-81
2021/08/11 12:31:09;;;;;;;;;;;28.50;93.30;;;;;;1872788;74;20222;-82
2021/08/11 12:33:40;;;;;;;;;;;28.50;93.90;;;;;;1893212;75;20170;-82
2021/08/11 12:36:13;;;;;;;;;;;28.40;93.30;;;;;;1880338;75;20169;-81
2021/08/11 12:38:46;;;;;;;;;;;28.40;93.10;;;;;;1883318;75;20170;-81
2021/08/11 12:41:17;;;;;;;;;;;28.40;93.20;;;;;;1887233;75;20196;-82
2021/08/11 12:43:47;;;;;;;;;;;28.40;92.90;;;;;;1810219;75;28502;-83
2021/08/11 12:46:20;;;;;;;;;;;28.40;92.90;;;;;;1781802;79;20127;-81
2021/08/11 12:48:50;;;;;;;;;;;28.40;93.10;;;;;;1784185;79;20129;-82
2021/08/11 12:51:21;;;;;;;;;;;28.40;93.20;;;;;;1780609;79;20636;-80
2021/08/11 12:53:54;;;;;;;;;;;28.40;93.10;;;;;;1761608;80;20607;-83
2021/08/11 12:56:23;;;;;;;;;;;28.40;93.20;;;;;;1760296;80;20186;-83
2021/08/11 12:58:57;;;;;;;;;;;28.40;93.00;;;;;;1758878;80;20522;-83
2021/08/11 13:01:28;;;;;;;;;;;28.40;92.60;;;;;;1769597;79;20284;-82
2021/08/11 13:03:58;;;;;;;;;;;28.40;92.70;;;;;;1757158;80;20267;-83
2021/08/11 13:06:32;;;;;;;;;;;28.40;92.80;;;;;;1777650;80;20172;-81
2021/08/11 13:09:03;;;;;;;;;;;28.40;92.60;;;;;;1759129;80;20142;-84
2021/08/11 13:11:36;;;;;;;;;;;28.40;92.60;;;;;;1766609;80;20219;-82
2021/08/11 13:14:07;;;;;;;;;;;28.30;92.60;;;;;;1764827;80;20214;-83
2021/08/11 13:16:36;;;;;;;;;;;28.30;92.70;;;;;;1775813;80;20284;-82
2021/08/11 13:19:08;;;;;;;;;;;28.30;92.60;;;;;;1776979;80;20221;-82
2021/08/11 13:21:39;;;;;;;;;;;28.20;92.50;;;;;;1776479;80;20191;-81
2021/08/11 13:24:09;;;;;;;;;;;28.20;92.10;;;;;;1776975;80;20545;-84
2021/08/11 13:26:39;;;;;;;;;;;28.20;92.00;;;;;;1765421;80;20147;-82
2021/08/11 13:29:09;;;;;;;;;;;28.10;92.00;;;;;;1773388;79;20255;-82
2021/08/11 13:31:44;;;;;;;;;;;28.20;92.10;;;;;;1768748;79;20186;-82
2021/08/11 13:34:15;;;;;;;;;;;28.10;92.10;;;;;;1752589;80;20339;-82
2021/08/11 13:36:48;;;;;;;;;;;28.20;92.10;;;;;;1735996;81;20245;-90
2021/08/11 13:39:26;;;;;;;;;;;28.10;92.10;;;;;;1757147;80;20195;-90
2021/08/11 13:41:54;;;;;;;;;;;28.10;92.20;;;;;;1735929;81;20133;-90
2021/08/11 13:44:33;;;;;;;;;;;28.10;92.10;;;;;;1761803;80;20531;-89
2021/08/11 13:47:01;;;;;;;;;;;28.10;92.30;;;;;;1730473;81;20217;-89
2021/08/11 13:49:31;;;;;;;;;;;28.10;92.40;;;;;;1768183;80;20248;-89
2021/08/11 13:52:02;;;;;;;;;;;28.10;92.50;;;;;;1757541;80;20241;-90
2021/08/11 13:54:31;;;;;;;;;;;28.20;92.60;;;;;;1792447;79;20492;-90
2021/08/11 13:57:02;;;;;;;;;;;28.20;92.60;;;;;;1793976;80;20180;-89
2021/08/11 13:59:35;;;;;;;;;;;28.30;92.50;;;;;;1791993;79;20224;-90
2021/08/11 14:02:06;;;;;;;;;;;28.30;92.60;;;;;;1792437;78;20454;-89
2021/08/11 14:04:41;;;;;;;;;;;28.30;92.50;;;;;;1794326;80;20189;-89
2021/08/11 14:07:11;;;;;;;;;;;28.30;92.40;;;;;;1790438;79;20209;-89
2021/08/11 14:09:56;;;;;;;;;;;28.30;92.50;;;;;;1786341;80;20201;-90
2021/08/11 14:12:26;;;;;;;;;;;28.20;92.60;;;;;;1787757;79;20127;-88
2021/08/11 14:15:12;;;;;;;;;;;28.20;92.70;;;;;;1789574;80;20272;-89
2021/08/11 14:17:34;;;;;;;;;;;28.30;92.90;;;;;;1804408;78;20160;-89
2021/08/11 14:20:07;;;;;;;;;;;28.30;93.50;;;;;;1790382;78;20272;-90
2021/08/11 14:22:43;;;;;;;;;;;28.30;93.40;;;;;;1763049;80;20201;-90
2021/08/11 14:25:25;;;;;;;;;;;28.30;93.10;;;;;;1804724;78;20211;-89
2021/08/11 14:27:56;;;;;;;;;;;28.30;93.10;;;;;;1789853;78;20209;-89
2021/08/11 14:30:47;;;;;;;;;;;28.30;93.00;;;;;;1772950;79;20451;-88
2021/08/11 14:33:20;;;;;;;;;;;28.30;93.10;;;;;;1781538;79;20213;-89
2021/08/11 14:35:51;;;;;;;;;;;28.30;93.30;;;;;;1734487;81;20239;-89
2021/08/11 14:38:28;;;;;;;;;;;28.30;93.30;;;;;;1770663;81;20219;-89
2021/08/11 14:40:59;;;;;;;;;;;28.30;93.70;;;;;;1670811;84;20258;-89
2021/08/11 14:43:31;;;;;;;;;;;28.30;93.50;;;;;;1685727;84;20149;-88
2021/08/11 14:46:08;;;;;;;;;;;28.30;93.80;;;;;;1671362;83;20204;-89
2021/08/11 14:48:37;;;;;;;;;;;28.30;93.50;;;;;;1681908;84;20260;-91
2021/08/11 14:51:16;;;;;;;;;;;28.30;93.60;;;;;;1693733;83;20217;-89
2021/08/11 14:53:50;;;;;;;;;;;28.30;93.70;;;;;;1682015;83;20212;-89